Aviation Digital Data Service (ADDS)

Output produced by METARs form (1825 UTC 06 July 2020)
found at http://aviationweather.gov/metar/data/
 
METAR text: KJOT 061815Z AUTO 19004KT 10SM SCT060 33/19 A3001 RMK AO2 T03320188
Conditions at: KJOT (JOLIET , IL, US) observed 1815 UTC 06 July 2020
Temperature: 33.2°C (92°F)
Dewpoint: 18.8°C (66°F) [RH = 43%]
Pressure (altimeter): 30.01 inches Hg (1016.3 mb)
Winds: from the S (190 degrees) at 5 MPH (4 knots; 2.1 m/s)
Visibility: 10 or more miles (16+ km)
Ceiling: at least 12,000 feet AGL
Clouds: scattered clouds at 6000 feet AGL
Weather: automated observation with no human augmentation;
there may or may not be significant weather present at this time